• Join FlightAware (Why Join?)
  • Login
  • US Flag 
11:17PM EDT


 

Airport Tracker/Info


-or-


 

Live Flight TrackerFlight Track Log ✈ SKW5631 ✈ 12-Jun-2013 ✈ KSFO - KBUR

Flight Track Log - Related Links

Times and Time Zones

All times are in EDT time to prevent confusion due to time zone crossing. See the SKW5631 flight status page for this flight to view local times or setup timezone preferences in your user account.

Time Position Orientation Groundspeed Altitude Reporting Facility
EDT Latitude Longitude Course Direction KTS MPH feet Rate Location/Type
10:09PM 37.2661 -121.9361 135° Southeast  Level Estimated
10:10PM 37.1776 -121.8270 135° Southeast  Level Estimated
10:11PM 37.0890 -121.7181 136° Southeast  Level Estimated
10:12PM 37.0003 -121.6095 136° Southeast  Level Estimated
10:13PM 36.9115 -121.5012 136° Southeast  Level Estimated
10:14PM 36.8226 -121.3931 136° Southeast  Level Estimated
10:15PM 36.7336 -121.2852 136° Southeast  Level Estimated
10:16PM 36.6445 -121.1776 136° Southeast  Level Estimated
10:17PM 36.5553 -121.0702 136° Southeast  Level Estimated
10:18PM 36.4660 -120.9631 136° Southeast  Level Estimated
10:19PM 36.3767 -120.8562 136° Southeast  Level Estimated
10:20PM 36.2872 -120.7496 136° Southeast  Level Estimated
10:21PM 36.1976 -120.6432 136° Southeast  Level Estimated
10:22PM 36.1079 -120.5371 136° Southeast  Level Estimated
10:23PM 36.0182 -120.4312 136° Southeast  Level Estimated
10:24PM 35.9283 -120.3256 136° Southeast  Level Estimated
10:25PM 35.8384 -120.2202 136° Southeast  Level Estimated
10:26PM 35.7484 -120.1150 137° Southeast  Level Estimated
10:27PM 35.6582 -120.0101 137° Southeast  Level Estimated
10:28PM 35.5680 -119.9054 137° Southeast  Level Estimated
10:29PM 35.4777 -119.8009 137° Southeast  Level Estimated
10:30PM 35.3873 -119.6967 137° Southeast  Level Estimated
10:31PM 35.2968 -119.5927 137° Southeast  Level Estimated
10:32PM 35.2062 -119.4889 137° Southeast  Level Estimated
10:33PM 35.1156 -119.3854 137° Southeast  Level Estimated
10:34PM 35.0248 -119.2821 137° Southeast  Level Estimated
10:35PM 34.9340 -119.1790 137° Southeast  Level Estimated
10:36PM 34.8431 -119.0762 137° Southeast  Level Estimated
10:37PM 34.7521 -118.9736 137° Southeast  Level Estimated
10:38PM 34.6610 -118.8712 137° Southeast  Level Estimated
10:39PM 34.5698 -118.7690 137° Southeast  Level Estimated
10:40PM 34.4785 -118.6671 137° Southeast  Level Estimated
10:41PM 34.3872 -118.5654 137° Southeast  Level Estimated
10:42PM 34.2957 -118.4639 137° Southeast  Level Estimated
10:43PM 34.2042 -118.3626 138° Southeast  Level Estimated
10:44PM 34.2007 -118.3587 138° Southeast  Level Estimated
10:45PM 34.2007 -118.3587 140° Southeast  Level Estimated
10:46PM 34.2007 -118.3587 140° Southeast  Level Estimated
10:47PM 34.2007 -118.3587 140° Southeast  Level Estimated
10:48PM 34.2007 -118.3587 140° Southeast  Level Estimated
10:49PM 34.2007 -118.3587 140° Southeast  Level Estimated
10:50PM 34.2007 -118.3587 140° Southeast  Level Estimated
10:51PM 34.2007 -118.3587 140° Southeast  Level Estimated
10:52PM 34.2007 -118.3587 140° Southeast  Level Estimated
10:53PM 34.2007 -118.3587 140° Southeast  Level Estimated
10:54PM 34.2007 -118.3587 140° Southeast  Level Estimated
10:55PM 34.2007 -118.3587 140° Southeast  Level Estimated
10:56PM 34.2007 -118.3587 140° Southeast  Level Estimated
10:57PM 34.2007 -118.3587 140° Southeast  Level Estimated
10:58PM 34.2007 -118.3587 140° Southeast  Level Estimated
10:59PM 34.2007 -118.3587 140° Southeast  Level Estimated